Disclaimer

Please do not use the information listed here in-flight or in-navigation, as they are not provided to us by the airports but are provided by volunteers, so they might be outdated.

Search


Regions


Airport information page

Radio informations:
Tower (TWR) - 119.4 MHz

Airport informations:
Latitude: 63° 27' 27.20" N
Longitude: 010° 55' 27.30" E
Elevation: 56 feet - 17 meters
Operating hours: 24 hour operations
Operating agency: Military-civil joint use airport
Timezone: UTC+1(+2DT) - Last Sunday in March to last Sunday in October
Fuel: JP-4, Wide cut turbine fuel MIL Spec T-5624

Jet A1, without icing nhibitor.

Aviation Gasoline (AVGAS), octane unknown.

Jet fuel avaiable but type is unknown.

100/130 MIL Spec, low lead, aviation gasoline (BLUE)

Runway information:
09/27 - 9347 x 148 feet< - >2849 x 45 meters
14/32 - 3117 x 118 feet< - >950 x 36 meters

Recent METARs:
ENVA 181920Z 09004KT CAVOK M01/M02 Q1041 RMK WIND 670FT 10006KT
ENVA 181950Z 08004KT CAVOK M02/M02 Q1041 RMK WIND 670FT 09007KT
ENVA 182020Z 08004KT CAVOK M01/M02 Q1041 RMK WIND 670FT 08007KT

Airport on the map: